Time;durP1;ratioP1;P1;durP2;ratioP2;P2;SDS_P1;SDS_P2;PMS_P1;PMS_P2;Temp;Humidity;BMP_temperature;BMP_pressure;BME280_temperature;BME280_humidity;BME280_pressure;Samples;Min_cycle;Max_cycle;Signal;HPM_P1;HPM_P2
2021/06/03 00:02:12;;;;;;;;;0.00;0.00;;;;;21.57;59.61;101279.75;5071238;28;50871;-86
2021/06/03 00:04:38;;;;;;;;;1.00;0.00;;;;;21.64;59.86;101287.50;5060632;28;48065;-86
2021/06/03 00:07:04;;;;;;;;;0.00;0.00;;;;;21.80;59.61;101316.19;5070488;28;45654;-87
2021/06/03 00:09:30;;;;;;;;;2.75;2.00;;;;;21.62;60.02;101296.41;5073084;27;45506;-87
2021/06/03 00:11:56;;;;;;;;;0.25;0.25;;;;;21.60;60.09;101298.22;5071537;27;45508;-88
2021/06/03 00:14:22;;;;;;;;;1.75;1.00;;;;;21.70;59.71;101309.41;5075548;27;45573;-87
2021/06/03 00:16:47;;;;;;;;;0.00;0.00;;;;;21.66;59.96;101319.25;5059340;28;45429;-88
2021/06/03 00:19:13;;;;;;;;;2.25;1.00;;;;;21.41;60.05;101282.88;5070515;27;45312;-86
2021/06/03 00:21:43;;;;;;;;;0.00;0.00;;;;;21.31;60.17;101273.44;5066447;28;45591;-88
2021/06/03 00:24:10;;;;;;;;;0.00;0.00;;;;;21.55;60.26;101316.88;5071484;28;48302;-87
2021/06/03 00:26:36;;;;;;;;;2.00;0.25;;;;;21.52;60.60;101322.25;5069774;28;45491;-88
2021/06/03 00:29:02;;;;;;;;;0.00;0.00;;;;;21.30;60.31;101285.81;5067114;27;49884;-87
2021/06/03 00:31:28;;;;;;;;;0.50;0.00;;;;;21.27;60.38;101283.25;5074106;28;45295;-88
2021/06/03 00:33:53;;;;;;;;;3.25;0.25;;;;;21.19;60.61;101275.50;5069522;28;45339;-87
2021/06/03 00:36:19;;;;;;;;;0.00;0.00;;;;;21.45;60.75;101326.88;5068703;28;45340;-87
2021/06/03 00:38:44;;;;;;;;;0.25;0.25;;;;;21.14;60.78;101275.63;5077386;27;45405;-86
2021/06/03 00:41:10;;;;;;;;;0.75;0.00;;;;;21.46;60.71;101331.25;5076976;27;45541;-87
2021/06/03 00:43:36;;;;;;;;;1.00;0.00;;;;;21.40;60.59;101328.78;5074501;27;45485;-88
2021/06/03 00:46:04;;;;;;;;;0.00;0.00;;;;;21.16;61.03;101295.91;5090903;27;45419;-87
2021/06/03 00:48:30;;;;;;;;;3.50;1.00;;;;;21.16;60.99;101299.41;5070530;27;45533;-87
2021/06/03 00:50:59;;;;;;;;;0.00;0.00;;;;;21.04;60.85;101279.44;5066000;27;45615;-87
2021/06/03 00:53:26;;;;;;;;;0.00;0.00;;;;;21.35;61.07;101341.28;5066068;28;47980;-88
2021/06/03 00:55:55;;;;;;;;;0.25;0.00;;;;;21.21;60.73;101324.00;5075454;28;45559;-87
2021/06/03 00:58:21;;;;;;;;;0.00;0.00;;;;;21.34;61.10;101334.22;5077510;27;45430;-88
2021/06/03 01:00:49;;;;;;;;;0.00;0.00;;;;;21.34;61.00;101340.41;5063682;28;45345;-88
2021/06/03 01:03:15;;;;;;;;;1.00;0.50;;;;;20.99;61.05;101279.56;5073024;28;47219;-89
2021/06/03 01:05:49;;;;;;;;;1.75;1.00;;;;;21.16;60.57;101301.19;5065562;28;45372;-87
2021/06/03 01:08:18;;;;;;;;;0.00;0.00;;;;;21.39;60.96;101332.34;5065588;27;45585;-87
2021/06/03 01:11:00;;;;;;;;;1.00;0.00;;;;;21.21;60.68;101300.16;5070704;27;45402;-87
2021/06/03 01:13:37;;;;;;;;;0.00;0.00;;;;;21.45;60.72;101342.78;5075716;28;47386;-87
2021/06/03 01:16:04;;;;;;;;;0.00;0.00;;;;;21.39;60.31;101335.88;5066949;28;45541;-87
2021/06/03 01:18:33;;;;;;;;;0.00;0.00;;;;;21.27;60.31;101304.41;5074480;27;45432;-87
2021/06/03 01:21:01;;;;;;;;;1.00;1.00;;;;;21.48;60.56;101341.81;5071244;28;45465;-87
2021/06/03 01:23:38;;;;;;;;;0.00;0.00;;;;;21.44;59.87;101318.97;5067771;28;47126;-87
2021/06/03 01:26:04;;;;;;;;;0.00;0.00;;;;;20.98;59.96;101248.72;5072140;27;45682;-88
2021/06/03 01:28:30;;;;;;;;;0.00;0.00;;;;;21.49;59.91;101327.66;5066045;28;45573;-88
2021/06/03 01:30:57;;;;;;;;;0.00;0.00;;;;;21.57;59.81;101327.44;5071748;28;45588;-87
2021/06/03 01:33:27;;;;;;;;;0.00;0.00;;;;;21.78;59.77;101357.78;5069237;28;48231;-87
2021/06/03 01:35:57;;;;;;;;;1.00;0.75;;;;;21.41;59.35;101293.47;5069547;28;45449;-87
2021/06/03 01:38:32;;;;;;;;;2.25;0.25;;;;;21.70;59.40;101338.53;5071608;28;45534;-87
2021/06/03 01:40:59;;;;;;;;;1.25;0.00;;;;;21.41;59.33;101300.53;5066142;28;45427;-86
2021/06/03 01:43:28;;;;;;;;;0.00;0.00;;;;;21.86;59.08;101365.50;5090549;27;47195;-87
2021/06/03 01:45:55;;;;;;;;;0.00;0.00;;;;;21.63;58.96;101327.28;5072502;27;45412;-87
2021/06/03 01:48:22;;;;;;;;;1.00;0.00;;;;;21.60;59.15;101322.06;5073861;28;45516;-89
2021/06/03 01:50:50;;;;;;;;;2.00;0.00;;;;;21.89;58.91;101371.59;5070242;28;45458;-88
2021/06/03 01:53:17;;;;;;;;;0.25;0.25;;;;;21.67;58.73;101335.97;5066885;28;45582;-85
2021/06/03 01:55:42;;;;;;;;;0.50;0.50;;;;;21.67;58.98;101333.34;5079917;27;45436;-88
2021/06/03 01:58:08;;;;;;;;;0.00;0.00;;;;;21.86;58.62;101365.50;5058882;28;45511;-87
2021/06/03 02:00:34;;;;;;;;;0.00;0.00;;;;;21.87;58.80;101373.41;5068763;27;45259;-88
2021/06/03 02:03:00;;;;;;;;;1.00;0.00;;;;;21.68;58.74;101343.03;5075429;27;47953;-87
2021/06/03 02:05:26;;;;;;;;;1.00;0.00;;;;;21.87;58.39;101385.81;5070497;27;45611;-87
2021/06/03 02:07:51;;;;;;;;;0.00;0.00;;;;;21.68;58.46;101350.97;5063866;27;45386;-87
2021/06/03 02:10:20;;;;;;;;;1.00;1.00;;;;;21.54;58.59;101335.47;5072357;27;45394;-86
2021/06/03 02:12:52;;;;;;;;;0.00;0.00;;;;;21.65;58.34;101357.22;5064228;28;45736;-88
2021/06/03 02:15:21;;;;;;;;;0.50;0.50;;;;;21.29;58.85;101302.63;5067010;28;45425;-86
2021/06/03 02:17:52;;;;;;;;;0.00;0.00;;;;;21.59;58.28;101354.75;5071769;28;45481;-87
2021/06/03 02:20:26;;;;;;;;;0.00;0.00;;;;;21.46;58.77;101336.56;5079942;28;45620;-87
2021/06/03 02:22:52;;;;;;;;;0.00;0.00;;;;;21.60;58.30;101361.78;5073291;27;45391;-86
2021/06/03 02:25:19;;;;;;;;;1.75;0.00;;;;;21.18;58.80;101310.84;5075910;28;45386;-87
2021/06/03 02:27:45;;;;;;;;;2.00;0.75;;;;;21.26;58.88;101329.16;5068698;27;45390;-87
2021/06/03 02:30:11;;;;;;;;;0.00;0.00;;;;;21.71;58.45;101398.59;5067750;28;45273;-87
2021/06/03 02:32:37;;;;;;;;;0.00;0.00;;;;;21.47;58.42;101378.00;5075408;27;47029;-88
2021/06/03 02:35:09;;;;;;;;;0.00;0.00;;;;;21.48;58.76;101369.19;5075168;27;45473;-86
2021/06/03 02:37:38;;;;;;;;;0.00;0.00;;;;;21.67;58.90;101397.78;5075533;27;45669;-86
2021/06/03 02:40:07;;;;;;;;;0.00;0.00;;;;;21.73;58.96;101402.03;5080913;27;45597;-89
2021/06/03 02:42:33;;;;;;;;;0.00;0.00;;;;;21.52;58.47;101364.66;5059547;28;48020;-87
2021/06/03 02:44:59;;;;;;;;;0.00;0.00;;;;;21.44;58.57;101364.00;5074741;27;45401;-87
2021/06/03 02:47:26;;;;;;;;;0.00;0.00;;;;;21.48;58.29;101371.81;5076233;27;45703;-87
2021/06/03 02:49:51;;;;;;;;;0.75;0.75;;;;;21.50;58.46;101379.72;5057716;28;45582;-88
2021/06/03 02:52:17;;;;;;;;;1.75;1.00;;;;;21.66;58.62;101406.66;5072499;28;45519;-86
2021/06/03 02:54:42;;;;;;;;;0.75;0.00;;;;;21.40;58.38;101363.19;5083170;27;45524;-89
2021/06/03 02:57:07;;;;;;;;;0.00;0.00;;;;;21.59;58.46;101397.16;5062983;28;45565;-88
2021/06/03 02:59:33;;;;;;;;;0.00;0.00;;;;;21.42;58.75;101376.41;5073332;28;45645;-87
2021/06/03 03:01:59;;;;;;;;;0.00;0.00;;;;;21.56;58.87;101399.88;5059557;28;46635;-86
2021/06/03 03:04:24;;;;;;;;;1.00;1.00;;;;;20.96;58.89;101297.31;5057259;28;45560;-86
2021/06/03 03:06:49;;;;;;;;;0.00;0.00;;;;;21.48;58.61;101387.72;5064609;28;45495;-87
2021/06/03 03:09:15;;;;;;;;;0.00;0.00;;;;;21.45;58.59;101389.56;5067321;28;45429;-88
2021/06/03 03:11:40;;;;;;;;;2.00;0.00;;;;;21.60;58.62;101415.66;5074651;28;47605;-86
2021/06/03 03:14:06;;;;;;;;;1.50;0.00;;;;;21.15;58.88;101334.75;5061502;28;45458;-87
2021/06/03 03:16:31;;;;;;;;;0.00;0.00;;;;;21.41;58.82;101370.25;5069734;27;45443;-86
2021/06/03 03:18:56;;;;;;;;;1.00;1.00;;;;;21.49;58.51;101384.16;5067371;28;45453;-87
2021/06/03 03:21:22;;;;;;;;;0.00;0.00;;;;;21.59;58.66;101416.53;5066474;27;45804;-86
2021/06/03 03:23:47;;;;;;;;;0.00;0.00;;;;;21.52;58.34;101404.38;5070585;27;45559;-89
2021/06/03 03:26:13;;;;;;;;;0.75;0.75;;;;;21.56;58.68;101407.81;5062571;28;45388;-87
2021/06/03 03:28:38;;;;;;;;;4.50;1.00;;;;;21.44;58.73;101390.47;5064437;27;45433;-89
2021/06/03 03:31:03;;;;;;;;;1.50;0.50;;;;;21.42;58.85;101387.88;5074040;28;47382;-88
2021/06/03 03:33:29;;;;;;;;;0.00;0.00;;;;;21.45;58.95;101397.50;5071888;27;45489;-86
2021/06/03 03:35:55;;;;;;;;;1.00;1.00;;;;;21.67;58.44;101440.19;5073141;28;45609;-86
2021/06/03 03:38:22;;;;;;;;;0.00;0.00;;;;;21.48;58.80;101405.38;5077440;28;45373;-87
2021/06/03 03:40:49;;;;;;;;;0.00;0.00;;;;;21.54;58.55;101425.53;5076292;27;45517;-88
2021/06/03 03:43:14;;;;;;;;;1.75;1.75;;;;;21.39;58.80;101410.00;5060154;27;45364;-86
2021/06/03 03:45:40;;;;;;;;;0.75;0.75;;;;;21.67;58.76;101453.44;5076629;28;45375;-88
2021/06/03 03:48:06;;;;;;;;;0.00;0.00;;;;;21.43;58.88;101410.78;5073094;28;45462;-88
2021/06/03 03:50:33;;;;;;;;;1.25;0.00;;;;;21.56;59.25;101442.25;5069643;28;48742;-86
2021/06/03 03:52:59;;;;;;;;;0.00;0.00;;;;;21.44;58.86;101433.69;5069733;28;45494;-87
2021/06/03 03:55:24;;;;;;;;;0.00;0.00;;;;;21.48;58.92;101430.09;5066436;28;45260;-86
2021/06/03 03:57:50;;;;;;;;;1.00;1.00;;;;;21.34;59.04;101409.25;5064671;28;45282;-87
2021/06/03 04:00:21;;;;;;;;;0.00;0.00;;;;;21.35;58.81;101410.97;5084955;27;48329;-87
2021/06/03 04:02:47;;;;;;;;;1.00;1.00;;;;;21.64;58.91;101458.81;5067527;27;45646;-87
2021/06/03 04:05:13;;;;;;;;;0.50;0.50;;;;;21.72;58.97;101459.47;5074060;28;45354;-87
2021/06/03 04:07:39;;;;;;;;;0.00;0.00;;;;;21.49;58.64;101434.47;5058669;27;45521;-87
2021/06/03 04:10:16;;;;;;;;;0.00;0.00;;;;;21.49;58.82;101436.22;5076714;27;47583;-86
2021/06/03 04:12:41;;;;;;;;;0.25;0.25;;;;;21.40;59.21;101426.75;5067536;28;45385;-86
2021/06/03 04:15:08;;;;;;;;;0.00;0.00;;;;;21.67;58.52;101461.38;5068349;28;45397;-87
2021/06/03 04:17:33;;;;;;;;;1.00;1.00;;;;;21.63;59.00;101460.56;5072293;28;45326;-87
2021/06/03 04:19:59;;;;;;;;;0.00;0.00;;;;;21.54;58.84;101442.28;5066595;27;47932;-87
2021/06/03 04:22:24;;;;;;;;;1.00;0.50;;;;;21.79;59.24;101483.19;5069709;28;45346;-87
2021/06/03 04:24:50;;;;;;;;;0.00;0.00;;;;;21.50;58.83;101444.13;5074967;28;45454;-87
2021/06/03 04:27:15;;;;;;;;;0.00;0.00;;;;;21.82;58.98;101502.53;5072772;27;45395;-87
2021/06/03 04:29:41;;;;;;;;;0.00;0.00;;;;;21.85;58.39;101494.50;5068019;27;45463;-87
2021/06/03 04:32:07;;;;;;;;;1.00;1.00;;;;;21.51;58.25;101437.97;5069427;27;45479;-87
2021/06/03 04:34:33;;;;;;;;;1.00;1.00;;;;;21.82;58.90;101510.47;5089437;27;45436;-87
2021/06/03 04:36:59;;;;;;;;;2.25;0.00;;;;;21.55;58.63;101453.75;5075317;27;45593;-86
2021/06/03 04:39:24;;;;;;;;;0.00;0.00;;;;;21.67;58.57;101471.97;5063109;28;47589;-87
2021/06/03 04:41:50;;;;;;;;;2.00;0.00;;;;;21.84;58.38;101497.19;5072493;27;45441;-87
2021/06/03 04:44:15;;;;;;;;;0.00;0.00;;;;;21.32;58.08;101407.56;5072648;28;45366;-86
2021/06/03 04:46:41;;;;;;;;;0.50;0.00;;;;;21.73;58.06;101486.84;5072805;28;45348;-87
2021/06/03 04:49:06;;;;;;;;;1.00;0.00;;;;;21.46;58.97;101447.78;5091112;27;47257;-87
2021/06/03 04:51:34;;;;;;;;;0.75;0.50;;;;;21.50;58.49;101465.31;5067363;28;45479;-88
2021/06/03 04:53:59;;;;;;;;;1.25;1.00;;;;;21.16;58.31;101404.44;5079765;27;45473;-87
2021/06/03 04:56:25;;;;;;;;;0.00;0.00;;;;;21.46;58.57;101461.03;5074186;28;45395;-87
2021/06/03 04:58:50;;;;;;;;;0.00;0.00;;;;;21.61;58.73;101483.59;5072499;27;46253;-88
2021/06/03 05:01:15;;;;;;;;;0.00;0.00;;;;;21.57;58.85;101473.13;5073241;28;45446;-85
2021/06/03 05:03:41;;;;;;;;;0.50;0.00;;;;;21.81;58.82;101503.44;5068241;28;45453;-87
2021/06/03 05:06:06;;;;;;;;;0.00;0.00;;;;;21.75;58.52;101479.75;5061738;28;45678;-87
2021/06/03 05:08:32;;;;;;;;;4.25;1.25;;;;;21.91;58.47;101501.41;5072078;28;48364;-87
2021/06/03 05:10:57;;;;;;;;;1.50;1.50;;;;;21.68;58.26;101459.59;5071213;28;45527;-87
2021/06/03 05:13:23;;;;;;;;;0.75;0.75;;;;;21.65;58.49;101449.94;5059096;27;45247;-88
2021/06/03 05:15:48;;;;;;;;;1.00;0.00;;;;;21.89;58.51;101493.50;5067993;27;45572;-87
2021/06/03 05:18:13;;;;;;;;;0.25;0.25;;;;;21.91;58.65;101501.41;5074881;27;46716;-87
2021/06/03 05:20:39;;;;;;;;;0.00;0.00;;;;;21.93;58.55;101507.50;5062356;28;45485;-86
2021/06/03 05:23:05;;;;;;;;;0.25;0.25;;;;;21.71;58.09;101473.63;5067940;27;45431;-87
2021/06/03 05:25:32;;;;;;;;;1.00;1.00;;;;;21.77;58.00;101478.78;5077462;27;45252;-88
2021/06/03 05:27:58;;;;;;;;;1.25;0.50;;;;;21.97;57.92;101514.50;5067022;28;47381;-87
2021/06/03 05:30:24;;;;;;;;;3.00;0.00;;;;;21.90;58.17;101505.81;5075741;28;45382;-87
2021/06/03 05:32:50;;;;;;;;;0.00;0.00;;;;;21.73;57.70;101492.13;5076119;27;45559;-89
2021/06/03 05:35:19;;;;;;;;;0.75;0.50;;;;;21.93;58.12;101522.56;5095215;27;45583;-87
2021/06/03 05:37:44;;;;;;;;;2.00;0.25;;;;;21.66;58.11;101488.78;5072678;28;47677;-87
2021/06/03 05:40:13;;;;;;;;;1.00;1.00;;;;;21.79;58.70;101533.53;5078784;27;45525;-87
2021/06/03 05:42:38;;;;;;;;;0.00;0.00;;;;;21.61;59.09;101503.91;5065307;28;45557;-87
2021/06/03 05:45:07;;;;;;;;;0.00;0.00;;;;;21.63;59.10;101510.06;5072467;28;45547;-87
2021/06/03 05:47:34;;;;;;;;;1.00;1.00;;;;;21.25;58.56;101446.53;5076396;27;47761;-87
2021/06/03 05:49:59;;;;;;;;;4.00;0.50;;;;;21.39;58.75;101475.34;5066270;27;45425;-86
2021/06/03 05:52:25;;;;;;;;;0.00;0.00;;;;;21.65;59.05;101530.28;5091280;27;45481;-87
2021/06/03 05:54:51;;;;;;;;;0.75;0.00;;;;;21.56;59.41;101517.28;5073414;28;45451;-89
2021/06/03 05:57:17;;;;;;;;;2.50;0.50;;;;;21.42;58.67;101498.22;5067691;27;46200;-88
2021/06/03 05:59:42;;;;;;;;;2.00;0.25;;;;;21.62;59.35;101537.47;5088200;27;45387;-87
2021/06/03 06:02:12;;;;;;;;;1.00;1.00;;;;;21.46;59.32;101511.34;5073821;27;45599;-89
2021/06/03 06:07:23;;;;;;;;;0.50;0.50;;;;;21.45;59.63;101498.13;5051965;28;46493;-89
2021/06/03 06:09:48;;;;;;;;;0.75;0.75;;;;;21.34;59.32;101478.09;5054500;28;45429;-88
2021/06/03 06:12:14;;;;;;;;;1.00;1.00;;;;;21.36;58.95;101473.66;5037285;28;46137;-87
2021/06/03 06:14:39;;;;;;;;;1.00;0.00;;;;;21.43;59.70;101473.47;5067974;28;45474;-89
2021/06/03 06:17:04;;;;;;;;;1.00;0.50;;;;;21.81;59.01;101552.91;5052706;28;45572;-88
2021/06/03 06:19:31;;;;;;;;;0.00;0.00;;;;;21.83;58.91;101553.72;5039922;28;45508;-90
2021/06/03 06:21:56;;;;;;;;;1.00;0.50;;;;;21.73;58.74;101540.69;5057280;28;45599;-89
2021/06/03 06:24:22;;;;;;;;;1.00;1.00;;;;;21.77;58.57;101554.75;5052107;28;45431;-89
2021/06/03 06:26:47;;;;;;;;;1.00;1.00;;;;;21.59;58.60;101511.03;5049312;28;46392;-88
2021/06/03 06:29:13;;;;;;;;;1.00;1.00;;;;;21.54;58.82;101507.63;5038099;28;45513;-89
2021/06/03 06:31:39;;;;;;;;;2.25;1.75;;;;;21.57;58.71;101489.91;5038116;28;45419;-89
2021/06/03 06:34:04;;;;;;;;;1.75;0.25;;;;;21.80;58.33;101530.84;5033891;28;45426;-88
2021/06/03 06:36:29;;;;;;;;;2.00;1.50;;;;;21.75;58.42;101517.69;5067649;28;48197;-89
2021/06/03 06:38:55;;;;;;;;;1.00;1.00;;;;;21.90;57.61;101512.94;5052066;28;45411;-89
2021/06/03 06:41:20;;;;;;;;;1.00;0.00;;;;;21.85;57.79;101501.56;5050172;28;45435;-87
2021/06/03 06:43:46;;;;;;;;;1.00;0.75;;;;;22.08;57.39;101529.25;5041821;28;45509;-88
2021/06/03 06:46:11;;;;;;;;;1.50;1.00;;;;;22.30;57.09;101560.47;5065352;28;46494;-87
2021/06/03 06:48:37;;;;;;;;;0.00;0.00;;;;;22.41;56.64;101561.03;5072133;28;45452;-91
2021/06/03 06:51:03;;;;;;;;;0.00;0.00;;;;;22.40;56.25;101540.72;5080790;28;45247;-88
2021/06/03 06:53:28;;;;;;;;;2.50;1.00;;;;;22.38;56.20;101523.97;5074780;28;44832;-91
2021/06/03 06:55:55;;;;;;;;;0.00;0.00;;;;;22.57;55.66;101542.03;5081540;27;45567;-91
2021/06/03 06:58:20;;;;;;;;;0.00;0.00;;;;;22.55;55.70;101544.72;5071596;27;45303;-91
2021/06/03 07:00:46;;;;;;;;;0.50;0.50;;;;;22.18;55.16;101466.22;5074659;28;45472;-91
2021/06/03 07:03:12;;;;;;;;;1.00;0.00;;;;;22.92;55.40;101571.97;5091729;27;45405;-90
2021/06/03 07:05:41;;;;;;;;;0.00;0.00;;;;;23.06;54.98;101576.84;5072488;27;45415;-90
2021/06/03 07:08:07;;;;;;;;;0.00;0.00;;;;;22.39;55.36;101454.97;5064146;28;45306;-90
2021/06/03 07:10:33;;;;;;;;;1.00;1.00;;;;;22.63;54.87;101507.38;5070891;28;45543;-90
2021/06/03 07:12:58;;;;;;;;;0.00;0.00;;;;;23.10;54.54;101582.94;5071850;28;45552;-88
2021/06/03 07:15:23;;;;;;;;;1.25;1.25;;;;;23.17;54.97;101579.19;5068411;28;47056;-88
2021/06/03 07:17:49;;;;;;;;;0.50;0.50;;;;;23.20;54.18;101579.09;5063546;28;45433;-89
2021/06/03 07:20:19;;;;;;;;;2.00;0.00;;;;;23.22;54.24;101582.56;5064444;28;45588;-90
2021/06/03 07:22:47;;;;;;;;;1.00;1.00;;;;;23.33;54.57;101581.38;5073307;28;45565;-89
2021/06/03 07:25:13;;;;;;;;;0.00;0.00;;;;;23.21;53.80;101538.31;5073830;27;48244;-91
2021/06/03 07:27:40;;;;;;;;;0.00;0.00;;;;;23.51;53.93;101548.03;5079906;28;46022;-90
2021/06/03 07:30:07;;;;;;;;;1.00;1.00;;;;;23.50;52.95;101511.75;5076597;27;45332;-90
2021/06/03 07:32:34;;;;;;;;;0.75;0.75;;;;;23.95;53.08;101565.19;5082633;27;44976;-89
2021/06/03 07:35:00;;;;;;;;;4.00;0.50;;;;;23.41;52.93;101479.28;5088037;27;48610;-91
2021/06/03 07:37:25;;;;;;;;;2.25;1.00;;;;;23.66;52.30;101534.25;5095892;28;45396;-90
2021/06/03 07:39:51;;;;;;;;;1.00;1.00;;;;;23.72;52.57;101550.88;5105227;27;45330;-96
2021/06/03 07:42:17;;;;;;;;;0.50;0.50;;;;;23.72;52.57;101553.53;5078071;28;45745;-95
2021/06/03 07:44:43;;;;;;;;;1.00;1.00;;;;;23.36;52.20;101505.13;5096148;27;47385;-93
2021/06/03 07:47:08;;;;;;;;;0.00;0.00;;;;;23.08;52.59;101465.28;5097700;27;45441;-92
2021/06/03 07:49:33;;;;;;;;;1.00;1.00;;;;;23.67;52.23;101574.97;5070456;27;45506;-96
2021/06/03 07:52:02;;;;;;;;;1.00;1.00;;;;;23.74;51.96;101589.78;5090988;27;45518;-91
2021/06/03 07:54:29;;;;;;;;;2.50;1.75;;;;;23.52;52.23;101557.75;5092208;27;47074;-89
2021/06/03 07:56:54;;;;;;;;;2.50;2.00;;;;;23.63;52.19;101586.63;5074646;28;45540;-88
2021/06/03 07:59:21;;;;;;;;;0.00;0.00;;;;;23.70;52.00;101585.50;5075526;28;45562;-91
2021/06/03 08:01:46;;;;;;;;;0.75;0.00;;;;;23.33;52.07;101541.53;5069556;27;45447;-87
2021/06/03 08:04:11;;;;;;;;;0.00;0.00;;;;;23.44;52.30;101541.19;5072616;28;47241;-90
2021/06/03 08:06:36;;;;;;;;;1.00;1.00;;;;;23.03;51.73;101476.09;5095175;27;45252;-90
2021/06/03 08:09:03;;;;;;;;;0.00;0.00;;;;;23.77;51.93;101591.47;5073216;28;45361;-88
2021/06/03 08:11:28;;;;;;;;;0.00;0.00;;;;;23.59;52.00;101561.06;5075329;27;45461;-88
2021/06/03 08:13:53;;;;;;;;;0.50;0.50;;;;;23.17;51.65;101499.50;5062847;27;47451;-89
2021/06/03 08:16:20;;;;;;;;;1.25;1.25;;;;;23.12;51.35;101488.19;5064679;28;45390;-90
2021/06/03 08:18:45;;;;;;;;;2.00;1.00;;;;;23.65;52.05;101579.47;5087478;27;45540;-88
2021/06/03 08:21:11;;;;;;;;;5.00;1.75;;;;;23.58;51.62;101572.63;5070270;27;45535;-88
2021/06/03 08:23:37;;;;;;;;;2.25;1.00;;;;;23.81;52.19;101614.38;5067661;28;47877;-90
2021/06/03 08:26:02;;;;;;;;;4.00;0.00;;;;;23.88;51.71;101610.59;5070393;27;45495;-91
2021/06/03 08:28:29;;;;;;;;;0.00;0.00;;;;;23.46;51.87;101534.03;5069075;28;45525;-93
2021/06/03 08:30:56;;;;;;;;;1.00;1.00;;;;;23.75;51.37;101583.56;5075302;27;45625;-90
2021/06/03 08:33:22;;;;;;;;;0.00;0.00;;;;;23.75;51.25;101569.38;5081257;28;47592;-93
2021/06/03 08:35:48;;;;;;;;;1.50;1.50;;;;;24.02;51.39;101620.75;5089664;27;45396;-93
2021/06/03 08:38:14;;;;;;;;;1.00;1.00;;;;;23.37;51.51;101512.16;5071535;27;45557;-87
2021/06/03 08:40:44;;;;;;;;;0.00;0.00;;;;;23.15;51.37;101480.97;5076752;27;45657;-88
2021/06/03 08:43:10;;;;;;;;;1.00;1.00;;;;;24.02;52.04;101620.75;5072145;27;46280;-88
2021/06/03 08:45:38;;;;;;;;;0.00;0.00;;;;;23.87;51.66;101597.34;5078190;28;45821;-89
2021/06/03 08:48:04;;;;;;;;;3.00;1.50;;;;;23.62;51.55;101550.34;5072841;27;44803;-89
2021/06/03 08:50:33;;;;;;;;;0.25;0.00;;;;;23.78;51.13;101580.81;5068961;28;45674;-90
2021/06/03 08:53:00;;;;;;;;;1.50;0.50;;;;;23.89;51.14;101607.00;5067077;28;45609;-90
2021/06/03 08:58:15;;;;;;;;;1.00;1.00;;;;;24.18;51.10;101601.63;5072597;28;45419;-87
2021/06/03 09:00:41;;;;;;;;;0.00;0.00;;;;;24.01;50.74;101551.69;5075998;28;45464;-90
2021/06/03 09:03:07;;;;;;;;;1.00;1.00;;;;;24.50;50.78;101609.41;5079322;27;46416;-91
2021/06/03 09:05:33;;;;;;;;;2.25;1.50;;;;;24.00;50.38;101518.03;5074955;27;45474;-87
2021/06/03 09:08:26;;;;;;;;;0.25;0.25;;;;;24.60;49.88;101612.56;5072808;28;45522;-90
2021/06/03 09:10:53;;;;;;;;;2.25;1.00;;;;;24.15;49.38;101543.22;5064564;28;45601;-87
2021/06/03 09:13:21;;;;;;;;;1.00;1.00;;;;;24.51;49.33;101596.03;5074895;27;47276;-84
2021/06/03 09:15:50;;;;;;;;;0.00;0.00;;;;;24.17;49.07;101504.16;5072584;27;46575;-89
2021/06/03 09:18:18;;;;;;;;;0.25;0.00;;;;;24.62;48.82;101550.38;5072855;28;45572;-88
2021/06/03 09:20:46;;;;;;;;;4.25;0.00;;;;;25.17;48.21;101615.75;5074973;28;45471;-89
2021/06/03 09:23:32;;;;;;;;;1.00;1.00;;;;;25.26;47.65;101608.31;5070406;28;45476;-87
2021/06/03 09:26:04;;;;;;;;;1.50;1.00;;;;;25.38;47.72;101612.28;5071123;28;45581;-92
2021/06/03 09:28:48;;;;;;;;;1.25;0.00;;;;;25.57;47.13;101607.06;5074771;27;45485;-87
2021/06/03 09:31:26;;;;;;;;;0.50;0.25;;;;;25.61;46.49;101605.19;5083084;27;45625;-86
2021/06/03 09:33:57;;;;;;;;;4.25;0.00;;;;;25.49;46.54;101603.88;5077102;27;47232;-89
2021/06/03 09:36:32;;;;;;;;;0.00;0.00;;;;;25.43;46.21;101605.00;5079809;27;45948;-92
2021/06/03 09:39:00;;;;;;;;;0.00;0.00;;;;;25.34;46.28;101595.56;5079961;27;44996;-91
2021/06/03 09:41:28;;;;;;;;;1.00;1.00;;;;;24.93;46.78;101551.88;5087982;27;45538;-87
2021/06/03 09:44:16;;;;;;;;;0.00;0.00;;;;;24.88;46.45;101551.22;5071132;27;47910;-89
2021/06/03 09:46:47;;;;;;;;;0.00;0.00;;;;;25.15;46.55;101598.13;5078209;27;45445;-87
2021/06/03 09:49:16;;;;;;;;;0.25;0.25;;;;;25.19;46.72;101599.72;5077539;27;45641;-94
2021/06/03 09:51:44;;;;;;;;;0.00;0.00;;;;;24.83;45.98;101534.50;5074593;28;45337;-92
2021/06/03 09:54:15;;;;;;;;;1.00;0.75;;;;;25.30;46.36;101600.16;5096279;27;47763;-92
2021/06/03 09:56:43;;;;;;;;;0.75;0.75;;;;;25.20;46.51;101566.81;5073414;28;45267;-86
2021/06/03 09:59:16;;;;;;;;;1.00;0.25;;;;;25.60;46.05;101584.81;5077436;28;45449;-91
2021/06/03 10:01:48;;;;;;;;;1.00;1.00;;;;;25.52;46.21;101550.44;5071452;28;45481;-87
2021/06/03 10:04:22;;;;;;;;;1.00;1.00;;;;;25.69;45.21;101568.41;5066488;27;48283;-89
2021/06/03 10:07:01;;;;;;;;;1.00;0.75;;;;;25.64;45.78;101544.66;5093196;27;45306;-89
2021/06/03 10:09:39;;;;;;;;;1.00;0.50;;;;;26.08;44.76;101604.09;5073215;28;45532;-90
2021/06/03 10:12:07;;;;;;;;;1.25;0.00;;;;;25.89;44.80;101543.56;5073545;28;45573;-94
2021/06/03 10:14:33;;;;;;;;;0.00;0.00;;;;;26.21;44.89;101593.75;5083277;28;46502;-91
2021/06/03 10:17:12;;;;;;;;;1.75;1.75;;;;;26.12;44.44;101599.53;5083323;27;44893;-92
2021/06/03 10:19:38;;;;;;;;;0.00;0.00;;;;;25.55;44.88;101524.50;5073563;28;45537;-85
2021/06/03 10:22:11;;;;;;;;;0.00;0.00;;;;;25.61;44.41;101546.56;5076996;27;45442;-90
2021/06/03 10:25:01;;;;;;;;;3.00;0.00;;;;;25.93;44.74;101601.19;5075746;27;46185;-88
2021/06/03 10:27:51;;;;;;;;;2.75;2.75;;;;;25.87;44.68;101582.75;5070893;28;45694;-89
2021/06/03 10:30:24;;;;;;;;;3.00;1.00;;;;;25.84;44.59;101580.22;5077182;27;45591;-93
2021/06/03 10:32:53;;;;;;;;;0.00;0.00;;;;;25.49;44.64;101521.25;5075053;28;44831;-90
2021/06/03 10:35:22;;;;;;;;;2.00;0.25;;;;;25.88;44.76;101596.97;5073434;27;45491;-91
2021/06/03 10:37:49;;;;;;;;;1.25;1.00;;;;;25.49;44.93;101548.78;5078428;27;45496;-90
2021/06/03 10:40:20;;;;;;;;;0.00;0.00;;;;;25.55;45.00;101564.50;5084883;27;45477;-88
2021/06/03 10:42:46;;;;;;;;;0.00;0.00;;;;;25.72;44.42;101575.44;5066452;28;45547;-88
2021/06/03 10:45:14;;;;;;;;;0.25;0.00;;;;;25.58;44.63;101542.19;5073733;27;47380;-87
2021/06/03 10:47:41;;;;;;;;;0.00;0.00;;;;;25.86;45.47;101593.50;5071073;28;45438;-89
2021/06/03 10:50:11;;;;;;;;;1.25;1.25;;;;;25.66;45.23;101555.22;5073353;28;45326;-87
2021/06/03 10:52:36;;;;;;;;;0.25;0.25;;;;;25.52;44.57;101537.13;5072679;28;45635;-91
2021/06/03 10:55:03;;;;;;;;;1.50;0.00;;;;;25.57;44.96;101548.44;5071548;27;45390;-87
2021/06/03 10:57:55;;;;;;;;;0.50;0.50;;;;;25.81;44.76;101599.91;5066018;27;45492;-84
2021/06/03 11:00:27;;;;;;;;;1.75;0.00;;;;;25.77;45.13;101606.31;5064543;27;45472;-84
2021/06/03 11:02:55;;;;;;;;;5.00;0.50;;;;;25.55;45.23;101568.97;5073200;27;45533;-84
2021/06/03 11:05:24;;;;;;;;;0.75;0.75;;;;;25.68;45.01;101598.69;5071993;28;47385;-85
2021/06/03 11:07:50;;;;;;;;;1.00;0.00;;;;;25.42;45.20;101557.97;5068426;27;45535;-86
2021/06/03 11:10:27;;;;;;;;;2.00;2.00;;;;;25.56;45.44;101576.91;5078296;27;45459;-87
2021/06/03 11:13:13;;;;;;;;;0.00;0.00;;;;;25.73;45.41;101591.38;5062645;27;45455;-85
2021/06/03 11:16:10;;;;;;;;;1.50;1.00;;;;;25.73;45.17;101591.38;5062901;27;45521;-85
2021/06/03 11:18:45;;;;;;;;;0.00;0.00;;;;;25.79;45.25;101591.09;5066620;27;45456;-84
2021/06/03 11:21:32;;;;;;;;;1.50;0.00;;;;;25.85;45.26;101589.09;5067487;27;45622;-86
2021/06/03 11:24:16;;;;;;;;;4.75;1.00;;;;;25.88;45.17;101588.97;5067068;28;45235;-86
2021/06/03 11:26:42;;;;;;;;;1.00;1.00;;;;;25.87;44.72;101593.44;5067468;28;46621;-85
2021/06/03 11:29:19;;;;;;;;;2.00;1.00;;;;;25.91;44.80;101587.03;5064257;28;45513;-85
2021/06/03 11:31:48;;;;;;;;;0.25;0.25;;;;;26.00;44.75;101585.75;5067520;27;45306;-84
2021/06/03 11:34:21;;;;;;;;;1.00;1.00;;;;;26.04;44.58;101573.16;5071675;27;45503;-85